Time;durP1;ratioP1;P1;durP2;ratioP2;P2;SDS_P1;SDS_P2;PMS_P1;PMS_P2;Temp;Humidity;BMP_temperature;BMP_pressure;BME280_temperature;BME280_humidity;BME280_pressure;Samples;Min_cycle;Max_cycle;Signal;HPM_P1;HPM_P2
2023/07/24 00:00:04;;;;;;;10.20;9.20;;;;;;;26.35;41.46;95315.28;6127024;28;109580;-61
2023/07/24 00:03:07;;;;;;;11.73;9.90;;;;;;;26.46;41.19;95319.16;6130395;22;111959;-67
2023/07/24 00:06:10;;;;;;;10.23;9.23;;;;;;;26.51;41.66;95316.28;6111719;28;109405;-62
2023/07/24 00:09:14;;;;;;;10.33;9.43;;;;;;;26.54;41.48;95310.25;6118584;28;109025;-61
2023/07/24 00:12:18;;;;;;;10.90;9.90;;;;;;;26.60;41.38;95310.84;6103439;28;109340;-65
2023/07/24 00:15:22;;;;;;;10.27;9.27;;;;;;;26.52;41.41;95312.47;6109625;28;108672;-62
2023/07/24 00:18:25;;;;;;;10.47;9.43;;;;;;;26.56;41.30;95313.41;6112395;28;109055;-63
2023/07/24 00:21:28;;;;;;;10.20;9.30;;;;;;;26.54;41.36;95305.66;6114821;28;109281;-63
2023/07/24 00:24:32;;;;;;;10.67;9.70;;;;;;;26.55;41.53;95304.56;6105278;28;109052;-62
2023/07/24 00:27:37;;;;;;;10.80;9.80;;;;;;;26.51;41.66;95308.22;6114877;28;109804;-62
2023/07/24 00:30:40;;;;;;;10.50;9.40;;;;;;;26.23;41.59;95310.63;6114354;28;109227;-63
2023/07/24 00:33:43;;;;;;;12.20;11.00;;;;;;;26.25;41.67;95314.56;6114514;28;111254;-62
2023/07/24 00:36:46;;;;;;;10.20;9.30;;;;;;;26.42;41.97;95315.56;6103908;28;109233;-64
2023/07/24 00:39:49;;;;;;;10.60;9.43;;;;;;;26.43;41.35;95311.75;6114295;28;109279;-62
2023/07/24 00:42:54;;;;;;;10.70;9.70;;;;;;;26.34;41.97;95301.06;6116146;28;109241;-62
2023/07/24 00:45:57;;;;;;;11.83;10.63;;;;;;;26.24;42.31;95298.78;6111434;28;109114;-68
2023/07/24 00:49:01;;;;;;;11.33;10.23;;;;;;;26.22;41.51;95299.13;6113053;28;109812;-63
2023/07/24 00:52:05;;;;;;;11.50;10.30;;;;;;;26.27;41.72;95301.59;6113926;28;109311;-63
2023/07/24 00:55:10;;;;;;;11.00;10.00;;;;;;;26.13;42.07;95302.97;6122004;28;109242;-62
2023/07/24 00:58:16;;;;;;;11.03;9.97;;;;;;;25.98;42.54;95306.97;6108382;28;109639;-62
2023/07/24 01:01:19;;;;;;;11.63;10.43;;;;;;;25.99;42.70;95306.63;6116138;28;109841;-61
2023/07/24 01:04:23;;;;;;;11.00;10.00;;;;;;;25.99;42.81;95298.59;6122337;28;109710;-63
2023/07/24 01:07:26;;;;;;;11.57;10.47;;;;;;;26.01;42.74;95303.66;6117099;28;109007;-62
2023/07/24 01:10:29;;;;;;;10.90;9.80;;;;;;;26.06;43.31;95305.38;6106032;28;111076;-68
2023/07/24 01:13:39;;;;;;;10.50;9.50;;;;;;;26.10;43.27;95296.34;6129841;28;109327;-68
2023/07/24 01:16:43;;;;;;;10.40;9.40;;;;;;;26.10;43.20;95285.63;6128548;28;109107;-68
2023/07/24 01:19:49;;;;;;;11.20;10.13;;;;;;;25.95;44.13;95292.31;6121552;28;109199;-69
2023/07/24 01:23:13;;;;;;;10.77;9.70;;;;;;;25.79;44.09;95290.50;6129377;28;109229;-69
2023/07/24 01:26:18;;;;;;;11.83;10.60;;;;;;;25.91;43.92;95299.44;6115514;28;109284;-68
2023/07/24 01:29:21;;;;;;;12.13;9.80;;;;;;;25.94;43.55;95306.81;6116541;28;109180;-69
2023/07/24 01:32:24;;;;;;;9.90;8.90;;;;;;;25.74;44.39;95302.19;6114618;28;109203;-68
2023/07/24 01:35:29;;;;;;;13.43;10.30;;;;;;;25.76;44.07;95291.94;6127198;28;109105;-70
2023/07/24 01:38:35;;;;;;;10.93;9.90;;;;;;;25.76;43.94;95299.19;6131389;28;109135;-69
2023/07/24 01:41:40;;;;;;;11.43;10.40;;;;;;;25.77;44.17;95293.50;6113961;28;111963;-69
2023/07/24 01:44:43;;;;;;;12.13;10.90;;;;;;;25.79;43.93;95285.94;6102227;28;108975;-69
2023/07/24 01:47:46;;;;;;;11.23;10.13;;;;;;;25.69;44.07;95288.97;6126642;28;109385;-68
2023/07/24 01:50:49;;;;;;;12.23;10.57;;;;;;;25.75;44.20;95289.59;6133868;28;110253;-68
2023/07/24 01:53:53;;;;;;;10.87;9.87;;;;;;;26.04;43.74;95308.38;6107807;28;109945;-68
2023/07/24 01:56:57;;;;;;;11.43;10.23;;;;;;;26.20;42.97;95317.41;6092798;28;109277;-69
2023/07/24 02:00:00;;;;;;;11.00;9.90;;;;;;;26.19;43.14;95317.75;6114572;28;108914;-68
2023/07/24 02:03:03;;;;;;;11.10;10.10;;;;;;;26.17;43.21;95311.91;6112206;28;109232;-68
2023/07/24 02:06:07;;;;;;;12.57;11.33;;;;;;;26.03;43.23;95301.44;6114240;28;109344;-69
2023/07/24 02:09:11;;;;;;;11.50;10.40;;;;;;;25.82;43.35;95300.56;6119760;28;109262;-68
2023/07/24 02:12:15;;;;;;;11.23;10.13;;;;;;;25.96;43.31;95299.25;6126266;28;110249;-68
2023/07/24 02:15:19;;;;;;;12.83;11.53;;;;;;;26.11;42.98;95303.28;6118623;28;109347;-68
2023/07/24 02:18:22;;;;;;;16.57;14.97;;;;;;;26.03;43.41;95296.06;6115156;28;109316;-68
2023/07/24 02:21:25;;;;;;;17.00;15.30;;;;;;;26.15;42.91;95296.16;6112437;28;109126;-67
2023/07/24 02:24:28;;;;;;;14.30;13.00;;;;;;;26.27;42.50;95295.47;6112308;28;109087;-66
2023/07/24 02:27:34;;;;;;;15.13;13.73;;;;;;;26.23;42.64;95284.59;6111674;28;110157;-67
2023/07/24 02:30:39;;;;;;;13.40;12.10;;;;;;;26.33;42.36;95304.09;6113021;28;109145;-67
2023/07/24 02:33:42;;;;;;;13.07;11.57;;;;;;;26.36;42.36;95295.38;6122722;28;109287;-66
2023/07/24 02:36:45;;;;;;;13.00;11.70;;;;;;;26.11;42.79;95289.09;6118978;28;109593;-68
2023/07/24 02:39:49;;;;;;;14.90;13.50;;;;;;;25.94;43.15;95281.91;6101932;28;110351;-66
2023/07/24 02:42:55;;;;;;;14.83;13.33;;;;;;;26.01;42.83;95290.25;6128768;28;109167;-66
2023/07/24 02:46:02;;;;;;;12.73;11.43;;;;;;;26.20;42.81;95290.59;6131964;28;108925;-67
2023/07/24 02:49:05;;;;;;;14.67;13.10;;;;;;;26.24;42.14;95294.22;6130529;28;109031;-67
2023/07/24 02:52:08;;;;;;;13.87;12.57;;;;;;;26.27;42.21;95290.88;6125545;28;109160;-67
2023/07/24 02:55:11;;;;;;;15.83;14.23;;;;;;;26.34;42.19;95292.25;6136154;28;110023;-67
2023/07/24 02:58:16;;;;;;;14.77;13.37;;;;;;;26.38;42.17;95298.50;6114680;28;109260;-67
2023/07/24 03:01:19;;;;;;;35.73;32.43;;;;;;;26.37;42.14;95289.69;6111776;28;109159;-66
2023/07/24 03:04:22;;;;;;;27.30;24.90;;;;;;;26.31;42.64;95285.63;6109947;28;111302;-66
2023/07/24 03:07:25;;;;;;;25.87;23.57;;;;;;;26.24;42.31;95285.38;6113158;28;109227;-65
2023/07/24 03:10:28;;;;;;;17.33;15.70;;;;;;;26.12;42.35;95288.75;6112275;28;109083;-66
2023/07/24 03:13:33;;;;;;;15.83;14.33;;;;;;;25.91;42.62;95287.91;6090340;28;109123;-67
2023/07/24 03:16:36;;;;;;;14.30;12.90;;;;;;;25.72;43.58;95277.63;6099070;28;110480;-66
2023/07/24 03:19:39;;;;;;;14.60;12.50;;;;;;;25.50;43.69;95278.63;6119025;28;109239;-67
2023/07/24 03:22:43;;;;;;;13.87;12.47;;;;;;;25.08;44.71;95275.75;6130474;28;109290;-66
2023/07/24 03:25:46;;;;;;;21.90;19.80;;;;;;;25.34;44.48;95278.34;6114085;28;108933;-67
2023/07/24 03:28:51;;;;;;;31.10;28.10;;;;;;;25.58;44.07;95288.56;6123786;28;109242;-66
2023/07/24 03:31:54;;;;;;;22.90;20.67;;;;;;;25.78;43.59;95294.28;6116195;28;109561;-67
2023/07/24 03:34:59;;;;;;;25.70;23.40;;;;;;;25.57;44.04;95289.66;6116829;28;108845;-68
2023/07/24 03:38:02;;;;;;;25.60;23.27;;;;;;;25.43;44.51;95283.72;6105227;28;109331;-69
2023/07/24 03:41:05;;;;;;;36.13;33.23;;;;;;;25.45;44.77;95292.22;6124101;28;109584;-68
2023/07/24 03:44:09;;;;;;;21.80;19.63;;;;;;;25.63;44.48;95299.09;6124261;28;110088;-70
2023/07/24 03:47:13;;;;;;;18.20;15.83;;;;;;;25.61;45.30;95293.25;6104795;28;109439;-68
2023/07/24 03:50:16;;;;;;;13.57;12.27;;;;;;;25.35;46.21;95287.19;6116056;28;109457;-70
2023/07/24 03:53:19;;;;;;;24.97;22.47;;;;;;;25.30;46.89;95298.84;6115520;28;109138;-69
2023/07/24 03:56:22;;;;;;;36.07;32.67;;;;;;;25.22;48.03;95305.03;6119114;28;109084;-69
2023/07/24 03:59:27;;;;;;;22.07;19.93;;;;;;;25.17;48.49;95309.75;6108624;28;111713;-68
2023/07/24 04:02:30;;;;;;;16.10;14.80;;;;;;;25.27;47.71;95301.41;6114715;28;109219;-69
2023/07/24 04:05:35;;;;;;;14.50;13.20;;;;;;;25.23;48.01;95306.63;6114850;28;109302;-69
2023/07/24 04:08:38;;;;;;;12.60;11.50;;;;;;;24.98;48.48;95296.72;6115218;28;109119;-69
2023/07/24 04:11:41;;;;;;;12.30;11.20;;;;;;;25.10;48.58;95307.56;6102394;28;110120;-67
2023/07/24 04:14:46;;;;;;;11.13;10.20;;;;;;;25.09;48.43;95301.44;6130920;28;109205;-67
2023/07/24 04:17:49;;;;;;;11.73;10.63;;;;;;;24.95;49.23;95306.19;6116130;28;109577;-68
2023/07/24 04:20:52;;;;;;;22.27;20.00;;;;;;;25.26;49.16;95307.88;6115368;28;111774;-67
2023/07/24 04:23:55;;;;;;;20.43;18.43;;;;;;;25.63;48.26;95317.06;6103357;28;110255;-68
2023/07/24 04:26:58;;;;;;;16.10;14.70;;;;;;;25.87;47.56;95313.78;6104486;28;110149;-67
2023/07/24 04:30:02;;;;;;;14.60;13.20;;;;;;;26.02;47.00;95310.59;6130270;28;109105;-68
2023/07/24 04:33:05;;;;;;;13.97;11.27;;;;;;;26.04;47.35;95308.38;6128260;28;109290;-67
2023/07/24 04:36:08;;;;;;;12.60;11.57;;;;;;;26.09;47.35;95308.19;6112174;28;108973;-69
2023/07/24 04:39:11;;;;;;;13.13;11.80;;;;;;;26.16;46.96;95311.13;6126884;28;109881;-69
2023/07/24 04:42:14;;;;;;;14.17;12.17;;;;;;;26.20;46.61;95309.38;6138719;28;109364;-72
2023/07/24 04:45:19;;;;;;;14.27;12.20;;;;;;;26.24;46.23;95315.69;6127076;28;109117;-71
2023/07/24 04:48:25;;;;;;;13.30;11.90;;;;;;;26.28;46.24;95313.91;6117515;28;109187;-70
2023/07/24 04:51:28;;;;;;;13.23;11.93;;;;;;;26.31;46.09;95317.03;6114496;28;109999;-70
2023/07/24 04:54:32;;;;;;;13.43;11.97;;;;;;;26.31;45.27;95317.84;6114352;28;109116;-71
2023/07/24 04:57:35;;;;;;;14.03;12.60;;;;;;;26.34;45.35;95329.81;6104840;28;109092;-70
2023/07/24 05:00:39;;;;;;;13.07;11.77;;;;;;;26.35;45.72;95315.28;6114219;28;109200;-70
2023/07/24 05:03:43;;;;;;;12.77;11.33;;;;;;;26.36;45.51;95316.84;6117535;28;110322;-72
2023/07/24 05:06:46;;;;;;;15.43;13.93;;;;;;;26.21;45.17;95315.53;6132997;28;109256;-70
2023/07/24 05:09:49;;;;;;;14.20;12.90;;;;;;;26.30;45.43;95315.47;6116845;28;108727;-72
2023/07/24 05:12:52;;;;;;;14.10;12.23;;;;;;;26.35;45.35;95323.31;6113918;28;109407;-70
2023/07/24 05:15:56;;;;;;;13.03;11.87;;;;;;;26.37;45.26;95316.53;6113875;28;109509;-70
2023/07/24 05:18:59;;;;;;;14.30;12.90;;;;;;;26.26;44.48;95318.03;6102357;28;109167;-70
2023/07/24 05:22:03;;;;;;;15.70;14.00;;;;;;;26.17;44.64;95317.28;6113539;28;109114;-75
2023/07/24 05:25:06;;;;;;;15.17;13.67;;;;;;;26.14;44.70;95318.72;6114326;28;111467;-75
2023/07/24 05:28:10;;;;;;;15.10;13.63;;;;;;;26.11;44.95;95319.38;6113594;28;109116;-74
2023/07/24 05:31:14;;;;;;;15.20;13.60;;;;;;;26.09;45.02;95310.09;6103013;28;109160;-73
2023/07/24 05:34:18;;;;;;;14.23;12.83;;;;;;;26.13;44.68;95317.16;6123424;28;109348;-76
2023/07/24 05:37:21;;;;;;;13.80;12.50;;;;;;;26.15;45.29;95314.94;6137319;28;109735;-76
2023/07/24 05:40:24;;;;;;;14.17;12.87;;;;;;;26.15;45.16;95314.94;6119445;28;112178;-75
2023/07/24 05:43:28;;;;;;;13.73;12.53;;;;;;;26.18;45.10;95310.81;6102628;28;109870;-75
2023/07/24 05:46:32;;;;;;;20.83;18.87;;;;;;;26.25;45.74;95311.88;6113368;28;109149;-74
2023/07/24 05:49:36;;;;;;;17.60;15.87;;;;;;;26.35;45.18;95307.22;6123620;28;109374;-74
2023/07/24 05:52:41;;;;;;;19.30;17.50;;;;;;;26.44;45.10;95297.22;6129377;28;109141;-65
2023/07/24 05:55:44;;;;;;;16.30;14.80;;;;;;;26.52;44.64;95296.38;6136483;28;110237;-60
2023/07/24 05:58:47;;;;;;;15.20;13.67;;;;;;;26.61;44.15;95291.72;6136477;28;109438;-60
2023/07/24 06:01:52;;;;;;;16.73;14.40;;;;;;;26.68;44.37;95294.69;6136916;28;109280;-60
2023/07/24 06:04:55;;;;;;;15.33;13.83;;;;;;;26.73;44.16;95291.81;6112219;28;109307;-60
2023/07/24 06:07:58;;;;;;;15.17;13.77;;;;;;;26.75;43.94;95283.44;6112739;28;109096;-61
2023/07/24 06:11:01;;;;;;;14.97;13.47;;;;;;;26.80;44.37;95281.31;6113047;28;109155;-61
2023/07/24 06:14:04;;;;;;;13.43;12.23;;;;;;;26.84;44.48;95281.44;6118545;28;109355;-61
2023/07/24 06:17:09;;;;;;;12.83;11.70;;;;;;;26.91;43.88;95281.69;6118507;28;109569;-61
2023/07/24 06:20:12;;;;;;;13.73;12.43;;;;;;;26.97;43.65;95277.69;6111795;28;109433;-62
2023/07/24 06:23:15;;;;;;;12.73;11.43;;;;;;;27.03;44.05;95281.72;6112967;28;110243;-61
2023/07/24 06:26:18;;;;;;;14.23;12.83;;;;;;;27.10;43.55;95281.19;6131397;28;109920;-62
2023/07/24 06:29:22;;;;;;;13.83;12.43;;;;;;;27.16;44.02;95277.16;6130340;28;109204;-60
2023/07/24 06:32:27;;;;;;;12.10;11.00;;;;;;;27.20;43.29;95274.59;6136628;28;109213;-60
2023/07/24 06:35:30;;;;;;;13.23;12.00;;;;;;;27.25;43.53;95280.56;6120073;28;109123;-60
2023/07/24 06:38:33;;;;;;;12.43;11.23;;;;;;;27.30;43.34;95280.38;6101009;28;109617;-60
2023/07/24 06:41:37;;;;;;;12.70;11.60;;;;;;;27.33;43.12;95271.63;6112707;28;108850;-60
2023/07/24 06:44:40;;;;;;;13.00;11.90;;;;;;;27.36;43.80;95275.56;6112400;28;109348;-60
2023/07/24 06:47:44;;;;;;;11.90;10.87;;;;;;;27.41;43.50;95276.13;6111683;28;109211;-60
2023/07/24 06:50:47;;;;;;;12.10;11.00;;;;;;;27.46;42.85;95275.13;6101833;28;109498;-60
2023/07/24 06:53:50;;;;;;;12.13;10.93;;;;;;;27.48;43.41;95267.50;6114295;28;109100;-60
2023/07/24 06:56:53;;;;;;;11.73;10.70;;;;;;;27.55;42.75;95277.69;6140413;28;109442;-60
2023/07/24 06:59:56;;;;;;;11.40;10.40;;;;;;;27.59;43.06;95278.63;6140342;28;109132;-60
2023/07/24 07:03:01;;;;;;;12.50;11.30;;;;;;;27.62;42.87;95286.78;6129734;28;109235;-60
2023/07/24 07:06:06;;;;;;;12.77;11.57;;;;;;;27.66;42.49;95276.94;6120865;28;109099;-60
2023/07/24 07:09:09;;;;;;;12.33;11.13;;;;;;;27.70;42.28;95282.41;6116099;28;108849;-60
2023/07/24 07:12:12;;;;;;;11.60;10.50;;;;;;;27.72;42.92;95280.97;6108055;28;112485;-65
2023/07/24 07:15:16;;;;;;;11.83;10.67;;;;;;;27.62;42.39;95277.94;6127762;28;111677;-62
2023/07/24 07:18:20;;;;;;;11.70;10.60;;;;;;;27.50;42.37;95280.63;6123809;28;110084;-62
2023/07/24 07:21:23;;;;;;;12.20;11.07;;;;;;;27.37;42.71;95277.91;6136024;28;109404;-62
2023/07/24 07:24:27;;;;;;;12.40;11.17;;;;;;;27.38;42.21;95271.41;6124533;28;109358;-62
2023/07/24 07:27:30;;;;;;;13.17;10.60;;;;;;;27.26;42.82;95273.31;6116031;28;110486;-62
2023/07/24 07:30:33;;;;;;;13.50;10.83;;;;;;;27.15;42.13;95286.34;6115762;28;109673;-61
2023/07/24 07:33:37;;;;;;;11.53;10.33;;;;;;;27.14;41.82;95266.75;6115895;28;109242;-62
2023/07/24 07:36:40;;;;;;;11.63;10.30;;;;;;;27.29;42.09;95268.03;6104565;28;109116;-61
2023/07/24 07:39:44;;;;;;;11.63;10.07;;;;;;;27.20;41.96;95261.94;6121885;28;109203;-61
2023/07/24 07:42:47;;;;;;;10.50;9.40;;;;;;;27.17;42.47;95263.41;6139752;28;109153;-60
2023/07/24 07:45:50;;;;;;;10.43;9.43;;;;;;;27.51;41.79;95263.38;6119767;28;110272;-61
2023/07/24 07:48:54;;;;;;;12.07;9.53;;;;;;;27.77;40.67;95263.81;6109549;28;109124;-61
2023/07/24 07:51:57;;;;;;;10.67;9.63;;;;;;;27.89;40.92;95261.16;6138311;28;109468;-61
2023/07/24 07:55:01;;;;;;;11.23;10.13;;;;;;;27.96;41.27;95261.38;6131549;28;110540;-60
2023/07/24 07:58:04;;;;;;;9.97;9.07;;;;;;;28.03;40.98;95266.19;6104436;28;109664;-60
2023/07/24 08:01:07;;;;;;;10.27;9.30;;;;;;;28.07;40.50;95267.09;6115363;28;110638;-60
2023/07/24 08:04:12;;;;;;;11.27;9.37;;;;;;;27.99;40.69;95259.91;6114383;28;109032;-63
2023/07/24 08:07:15;;;;;;;11.20;10.10;;;;;;;27.57;40.84;95264.72;6114015;28;109261;-63
2023/07/24 08:10:18;;;;;;;11.00;9.73;;;;;;;27.75;41.24;95256.09;6105173;28;110175;-62
2023/07/24 08:13:21;;;;;;;11.33;10.13;;;;;;;27.73;40.73;95257.56;6115220;28;109266;-62
2023/07/24 08:16:24;;;;;;;11.77;10.60;;;;;;;27.62;40.83;95251.06;6115111;28;109259;-62
2023/07/24 08:19:30;;;;;;;11.37;10.17;;;;;;;27.51;40.93;95252.59;6114857;28;108856;-63
2023/07/24 08:22:33;;;;;;;17.07;11.30;;;;;;;27.37;41.18;95250.25;6104434;28;110485;-62
2023/07/24 08:25:37;;;;;;;10.80;9.80;;;;;;;27.33;41.59;95250.13;6114794;28;109871;-63
2023/07/24 08:28:42;;;;;;;11.30;10.30;;;;;;;27.44;41.00;95245.13;6114806;28;109365;-61
2023/07/24 08:31:45;;;;;;;12.53;11.17;;;;;;;27.50;40.62;95241.06;6104805;28;109211;-63
2023/07/24 08:34:49;;;;;;;12.60;11.40;;;;;;;27.66;41.06;95230.44;6094155;28;109133;-62
2023/07/24 08:37:52;;;;;;;14.07;12.60;;;;;;;27.69;40.96;95233.22;6114612;28;109416;-62
2023/07/24 08:41:06;;;;;;;22.43;14.90;;;;;;;27.73;40.15;95218.00;6114442;28;109093;-62
2023/07/24 08:44:10;;;;;;;20.30;16.27;;;;;;;27.82;40.32;95220.56;6103699;28;109364;-63
2023/07/24 08:47:14;;;;;;;18.43;15.83;;;;;;;27.73;40.32;95226.06;6114242;28;110353;-65
2023/07/24 08:50:21;;;;;;;16.80;14.77;;;;;;;27.79;40.34;95221.25;6114479;28;108931;-65
2023/07/24 08:53:25;;;;;;;21.80;18.93;;;;;;;28.18;39.81;95221.63;6113826;28;109226;-64
2023/07/24 08:56:28;;;;;;;19.37;15.80;;;;;;;28.13;39.00;95221.88;6104269;28;109126;-65
2023/07/24 08:59:32;;;;;;;17.77;15.47;;;;;;;28.21;38.89;95224.44;6114051;28;109215;-65
2023/07/24 09:02:36;;;;;;;17.97;14.97;;;;;;;28.31;38.27;95209.72;6113666;28;109242;-65
2023/07/24 09:05:41;;;;;;;19.30;13.77;;;;;;;28.30;38.09;95218.91;6118675;28;109368;-65
2023/07/24 09:08:44;;;;;;;15.07;13.57;;;;;;;28.14;38.72;95216.16;6135009;28;109225;-64
2023/07/24 09:11:49;;;;;;;16.07;13.57;;;;;;;28.08;38.71;95214.06;6138442;28;108683;-65
2023/07/24 09:15:02;;;;;;;16.30;13.33;;;;;;;28.21;38.54;95218.25;6137881;28;109152;-66
2023/07/24 09:18:05;;;;;;;14.93;13.40;;;;;;;28.30;37.57;95208.94;6115752;28;109090;-64
2023/07/24 09:21:11;;;;;;;16.27;14.57;;;;;;;28.39;38.52;95208.78;6126056;28;110034;-64
2023/07/24 09:24:16;;;;;;;15.37;12.73;;;;;;;28.32;38.18;95204.00;6137316;28;109115;-65
2023/07/24 09:27:19;;;;;;;14.97;13.50;;;;;;;28.19;38.91;95201.66;6137816;28;108896;-64
2023/07/24 09:30:24;;;;;;;17.97;15.10;;;;;;;28.22;39.10;95190.22;6126600;28;109020;-64
2023/07/24 09:33:35;;;;;;;17.00;14.50;;;;;;;28.29;39.09;95187.75;6137362;28;109143;-66
2023/07/24 09:36:40;;;;;;;17.20;15.27;;;;;;;28.33;38.99;95181.31;6137390;28;109286;-66
2023/07/24 09:39:47;;;;;;;16.53;14.70;;;;;;;28.38;38.82;95174.13;6132273;28;108758;-66
2023/07/24 09:42:50;;;;;;;15.83;14.43;;;;;;;28.36;39.11;95177.94;6134601;28;109129;-65
2023/07/24 09:46:13;;;;;;;17.17;15.47;;;;;;;28.45;38.45;95166.25;6137358;28;108739;-65
2023/07/24 09:49:17;;;;;;;18.03;14.97;;;;;;;28.49;39.18;95159.88;6116187;28;109365;-64
2023/07/24 09:52:22;;;;;;;15.53;14.03;;;;;;;28.52;38.88;95150.31;6122990;28;111056;-64
2023/07/24 09:55:31;;;;;;;17.97;16.17;;;;;;;28.53;39.12;95149.97;6136770;28;108947;-64
2023/07/24 09:58:36;;;;;;;17.77;15.60;;;;;;;28.51;38.84;95146.84;6137242;28;109240;-64
2023/07/24 10:01:39;;;;;;;16.00;14.40;;;;;;;28.51;39.03;95129.91;6122194;28;109597;-64
2023/07/24 10:04:43;;;;;;;17.60;15.80;;;;;;;28.54;39.18;95143.44;6102373;28;110224;-64
2023/07/24 10:07:49;;;;;;;17.20;15.20;;;;;;;28.55;39.74;95144.22;6113381;28;108907;-63
2023/07/24 10:10:53;;;;;;;17.00;15.23;;;;;;;28.54;39.09;95137.28;6112990;28;109734;-63
2023/07/24 10:13:56;;;;;;;16.50;14.80;;;;;;;28.53;39.75;95136.50;6104350;28;111822;-64
2023/07/24 10:16:59;;;;;;;17.23;15.53;;;;;;;28.54;39.78;95129.19;6112417;28;109591;-63
2023/07/24 10:20:05;;;;;;;17.60;15.80;;;;;;;28.52;39.34;95129.56;6112858;28;109606;-64
2023/07/24 10:23:12;;;;;;;17.47;15.80;;;;;;;28.51;40.00;95129.91;6136445;28;109243;-64
2023/07/24 10:26:16;;;;;;;17.57;15.77;;;;;;;28.52;39.71;95116.09;6125760;28;110403;-64
2023/07/24 10:29:20;;;;;;;18.37;16.63;;;;;;;28.49;39.82;95111.41;6135990;28;109246;-64
2023/07/24 10:32:23;;;;;;;18.60;16.83;;;;;;;28.48;39.85;95109.06;6136678;28;110381;-75
2023/07/24 10:35:37;;;;;;;17.73;16.03;;;;;;;28.50;40.22;95106.78;6136517;28;109836;-76
2023/07/24 10:38:42;;;;;;;18.67;16.80;;;;;;;28.50;39.95;95096.81;6126939;28;109004;-75
2023/07/24 10:41:46;;;;;;;18.80;17.07;;;;;;;28.47;40.01;95096.72;6136458;28;109287;-74
2023/07/24 10:44:49;;;;;;;17.63;15.93;;;;;;;28.46;39.96;95095.94;6137367;28;110097;-75
2023/07/24 10:47:53;;;;;;;18.70;16.70;;;;;;;28.49;39.88;95089.06;6122528;28;109218;-75
2023/07/24 10:50:56;;;;;;;17.37;15.67;;;;;;;28.47;39.28;95091.34;6109526;28;109064;-75
2023/07/24 10:54:03;;;;;;;20.13;14.63;;;;;;;28.47;39.50;95097.50;6112314;28;109304;-75
2023/07/24 10:57:06;;;;;;;17.63;15.90;;;;;;;28.43;39.87;95087.75;6111982;28;110266;-76
2023/07/24 11:00:11;;;;;;;16.27;14.70;;;;;;;28.42;39.80;95089.66;6102958;28;109146;-77
2023/07/24 11:03:15;;;;;;;15.80;14.30;;;;;;;28.42;39.29;95078.91;6135250;28;110471;-74
2023/07/24 11:06:21;;;;;;;15.27;13.87;;;;;;;28.40;39.68;95073.06;6137434;28;108886;-75
2023/07/24 11:09:37;;;;;;;15.63;14.03;;;;;;;28.39;39.35;95070.69;6136234;28;109433;-75
2023/07/24 11:12:40;;;;;;;15.17;13.67;;;;;;;28.41;39.59;95077.31;6124653;28;109146;-75
2023/07/24 11:15:43;;;;;;;15.37;13.87;;;;;;;28.40;39.42;95061.53;6137668;28;109186;-75
2023/07/24 11:18:47;;;;;;;15.53;14.00;;;;;;;28.38;39.56;95056.47;6123656;28;109383;-74
2023/07/24 11:21:58;;;;;;;14.67;13.27;;;;;;;28.38;40.09;95058.38;6122522;28;109058;-75
2023/07/24 11:25:04;;;;;;;16.03;14.30;;;;;;;28.35;39.85;95054.47;6134181;28;109725;-76
2023/07/24 11:28:09;;;;;;;14.50;13.20;;;;;;;28.34;39.69;95050.22;6116134;28;108726;-76
2023/07/24 11:31:12;;;;;;;13.73;12.30;;;;;;;28.36;40.12;95047.94;6119429;28;109084;-76
2023/07/24 11:34:17;;;;;;;14.13;12.63;;;;;;;28.36;39.55;95047.94;6125004;28;109658;-75
2023/07/24 11:37:20;;;;;;;13.27;11.97;;;;;;;28.32;40.08;95042.47;6135570;28;109748;-75
2023/07/24 11:40:33;;;;;;;13.87;12.37;;;;;;;28.31;40.51;95037.44;6135656;28;109221;-74
2023/07/24 11:43:45;;;;;;;14.23;12.73;;;;;;;28.29;40.48;95031.63;6091921;28;109103;-75
2023/07/24 11:46:49;;;;;;;16.10;12.10;;;;;;;28.30;39.86;95028.59;6091082;28;109566;-75
2023/07/24 11:49:59;;;;;;;14.97;13.17;;;;;;;28.30;40.16;95028.59;6115739;28;109419;-75
2023/07/24 11:53:02;;;;;;;13.30;12.00;;;;;;;28.28;40.30;95019.31;6135226;28;109613;-77
2023/07/24 11:56:15;;;;;;;12.83;11.47;;;;;;;28.30;39.89;95017.81;6132215;28;110024;-66
2023/07/24 11:59:18;;;;;;;13.37;12.10;;;;;;;28.30;40.26;95017.03;6138253;28;109119;-76
2023/07/24 12:02:22;;;;;;;13.37;12.07;;;;;;;28.31;39.77;95024.00;6139968;28;109749;-78
2023/07/24 12:05:25;;;;;;;11.67;10.63;;;;;;;28.29;40.21;95016.25;6138969;28;109053;-77
2023/07/24 12:08:34;;;;;;;12.20;10.93;;;;;;;28.31;40.43;95013.22;6107362;28;109907;-75
2023/07/24 12:11:43;;;;;;;13.20;10.90;;;;;;;28.30;40.30;95019.72;6115888;28;109601;-77
2023/07/24 12:14:48;;;;;;;11.43;10.43;;;;;;;28.30;39.96;95006.28;6115351;28;109343;-76
2023/07/24 12:17:51;;;;;;;12.37;11.07;;;;;;;28.30;39.99;95015.13;6114768;28;109239;-76
2023/07/24 12:20:55;;;;;;;13.10;11.23;;;;;;;28.31;40.40;95014.00;6106614;28;109767;-77
2023/07/24 12:23:58;;;;;;;11.90;10.30;;;;;;;28.28;40.28;95008.53;6139152;28;109306;-67
2023/07/24 12:27:03;;;;;;;16.03;10.73;;;;;;;28.25;40.61;95003.84;6138633;28;109329;-67
2023/07/24 12:30:07;;;;;;;10.83;9.77;;;;;;;28.25;41.43;95003.84;6132723;28;109286;-69
2023/07/24 12:33:10;;;;;;;12.43;11.20;;;;;;;28.22;41.05;95009.91;6134547;28;109558;-68
2023/07/24 12:36:13;;;;;;;11.53;10.10;;;;;;;28.23;41.20;94998.03;6138408;28;109422;-68
2023/07/24 12:39:16;;;;;;;12.43;10.60;;;;;;;28.22;41.26;94996.44;6138673;28;109236;-68
2023/07/24 12:42:21;;;;;;;14.10;10.90;;;;;;;28.22;41.97;94996.44;6128153;28;108973;-68
2023/07/24 12:45:24;;;;;;;12.60;11.40;;;;;;;28.22;41.44;94993.75;6138492;28;109246;-69
2023/07/24 12:48:28;;;;;;;12.23;10.83;;;;;;;28.20;41.68;94983.34;6127114;28;109072;-68
2023/07/24 12:51:31;;;;;;;12.07;10.97;;;;;;;28.21;41.80;94984.13;6118921;28;111996;-68
2023/07/24 12:54:35;;;;;;;12.10;11.00;;;;;;;28.19;41.88;94981.00;6127769;28;109231;-68
2023/07/24 12:58:01;;;;;;;12.73;11.57;;;;;;;28.18;41.67;94988.28;6138288;28;108893;-68
2023/07/24 13:01:06;;;;;;;14.07;12.77;;;;;;;28.17;41.58;94983.25;6137185;28;109283;-67
2023/07/24 13:04:09;;;;;;;13.90;12.50;;;;;;;28.17;41.79;94989.41;6108652;28;109070;-68
2023/07/24 13:07:13;;;;;;;13.37;12.07;;;;;;;28.18;42.21;94976.75;6109759;28;109637;-68
2023/07/24 13:10:16;;;;;;;13.50;12.40;;;;;;;28.16;42.27;94982.47;6114140;28;109601;-68
2023/07/24 13:13:20;;;;;;;12.23;10.80;;;;;;;28.17;41.76;94978.66;6131781;28;109022;-68
2023/07/24 13:16:24;;;;;;;12.90;11.60;;;;;;;28.18;42.25;94960.59;6127725;28;109904;-68
2023/07/24 13:19:28;;;;;;;13.00;11.20;;;;;;;28.17;41.58;94969.81;6119975;28;109126;-67
2023/07/24 13:22:31;;;;;;;12.03;10.43;;;;;;;28.17;42.02;94961.72;6124109;28;109277;-68
2023/07/24 13:25:34;;;;;;;12.80;11.60;;;;;;;28.16;42.30;94960.94;6137314;28;109105;-68
2023/07/24 13:28:39;;;;;;;12.23;11.13;;;;;;;28.15;42.50;94961.31;6126991;28;110172;-68
2023/07/24 13:31:42;;;;;;;11.93;10.70;;;;;;;28.18;41.79;94957.91;6136480;28;108930;-69
2023/07/24 13:34:47;;;;;;;11.67;10.53;;;;;;;28.20;41.83;94952.97;6137890;28;110348;-68
2023/07/24 13:37:50;;;;;;;11.17;10.27;;;;;;;28.20;42.08;94947.56;6132623;28;109246;-68
2023/07/24 13:40:53;;;;;;;11.77;10.63;;;;;;;28.21;41.56;94941.84;6131798;28;109068;-68
2023/07/24 13:43:58;;;;;;;12.00;10.80;;;;;;;28.21;41.29;94941.84;6136929;28;109358;-68
2023/07/24 13:47:01;;;;;;;11.87;10.87;;;;;;;28.20;41.56;94936.81;6137349;28;109542;-68
2023/07/24 13:50:05;;;;;;;11.97;10.70;;;;;;;28.21;41.62;94927.59;6104645;28;109738;-68
2023/07/24 13:53:08;;;;;;;11.27;10.27;;;;;;;28.21;40.79;94927.59;6113859;28;110929;-68
2023/07/24 13:56:11;;;;;;;12.03;10.40;;;;;;;28.22;41.37;94929.16;6113109;28;109121;-68